sensor_id;sensor_type;location;lat;lon;timestamp;temperature;humidity
4312;DHT22;2169;49.086;9.284;2022-07-10T00:02:13;20.90;55.70
4312;DHT22;2169;49.086;9.284;2022-07-10T00:04:39;20.90;55.80
4312;DHT22;2169;49.086;9.284;2022-07-10T00:07:06;20.90;55.80
4312;DHT22;2169;49.086;9.284;2022-07-10T00:09:33;20.80;55.70
4312;DHT22;2169;49.086;9.284;2022-07-10T00:12:01;20.80;55.80
4312;DHT22;2169;49.086;9.284;2022-07-10T00:14:28;20.80;56.00
4312;DHT22;2169;49.086;9.284;2022-07-10T00:16:55;20.70;55.90
4312;DHT22;2169;49.086;9.284;2022-07-10T00:19:21;20.70;55.90
4312;DHT22;2169;49.086;9.284;2022-07-10T00:21:48;20.70;55.90
4312;DHT22;2169;49.086;9.284;2022-07-10T00:24:15;20.60;56.00
4312;DHT22;2169;49.086;9.284;2022-07-10T00:26:42;20.50;56.00
4312;DHT22;2169;49.086;9.284;2022-07-10T00:29:10;20.50;56.00
4312;DHT22;2169;49.086;9.284;2022-07-10T00:31:36;20.50;56.20
4312;DHT22;2169;49.086;9.284;2022-07-10T00:34:03;20.40;56.10
4312;DHT22;2169;49.086;9.284;2022-07-10T00:36:31;20.30;56.10
4312;DHT22;2169;49.086;9.284;2022-07-10T00:38:58;20.40;56.20
4312;DHT22;2169;49.086;9.284;2022-07-10T00:41:25;20.30;56.20
4312;DHT22;2169;49.086;9.284;2022-07-10T00:43:53;20.30;56.30
4312;DHT22;2169;49.086;9.284;2022-07-10T00:46:21;20.30;56.30
4312;DHT22;2169;49.086;9.284;2022-07-10T00:48:48;20.20;56.20
4312;DHT22;2169;49.086;9.284;2022-07-10T00:51:16;20.20;56.20
4312;DHT22;2169;49.086;9.284;2022-07-10T00:53:45;20.10;56.20
4312;DHT22;2169;49.086;9.284;2022-07-10T00:56:14;20.10;56.30
4312;DHT22;2169;49.086;9.284;2022-07-10T00:58:42;20.10;56.40
4312;DHT22;2169;49.086;9.284;2022-07-10T01:01:10;20.00;56.30
4312;DHT22;2169;49.086;9.284;2022-07-10T01:03:38;20.00;56.30
4312;DHT22;2169;49.086;9.284;2022-07-10T01:06:05;19.90;56.30
4312;DHT22;2169;49.086;9.284;2022-07-10T01:08:32;19.90;56.40
4312;DHT22;2169;49.086;9.284;2022-07-10T01:11:00;19.80;56.40
4312;DHT22;2169;49.086;9.284;2022-07-10T01:13:27;19.80;56.50
4312;DHT22;2169;49.086;9.284;2022-07-10T01:15:54;19.70;56.50
4312;DHT22;2169;49.086;9.284;2022-07-10T01:18:20;19.70;56.60
4312;DHT22;2169;49.086;9.284;2022-07-10T01:20:52;19.60;56.50
4312;DHT22;2169;49.086;9.284;2022-07-10T01:23:19;19.60;56.60
4312;DHT22;2169;49.086;9.284;2022-07-10T01:25:47;19.50;56.60
4312;DHT22;2169;49.086;9.284;2022-07-10T01:28:14;19.50;56.70
4312;DHT22;2169;49.086;9.284;2022-07-10T01:30:41;19.40;56.70
4312;DHT22;2169;49.086;9.284;2022-07-10T01:33:09;19.40;56.80
4312;DHT22;2169;49.086;9.284;2022-07-10T01:35:36;19.30;56.80
4312;DHT22;2169;49.086;9.284;2022-07-10T01:38:04;19.30;56.90
4312;DHT22;2169;49.086;9.284;2022-07-10T01:40:32;19.30;56.80
4312;DHT22;2169;49.086;9.284;2022-07-10T01:42:59;19.20;56.80
4312;DHT22;2169;49.086;9.284;2022-07-10T01:45:26;19.20;56.90
4312;DHT22;2169;49.086;9.284;2022-07-10T01:47:52;19.20;56.90
4312;DHT22;2169;49.086;9.284;2022-07-10T01:50:19;19.10;56.90
4312;DHT22;2169;49.086;9.284;2022-07-10T01:52:46;19.10;57.00
4312;DHT22;2169;49.086;9.284;2022-07-10T01:55:14;19.10;57.00
4312;DHT22;2169;49.086;9.284;2022-07-10T01:57:42;19.00;56.90
4312;DHT22;2169;49.086;9.284;2022-07-10T02:00:09;19.00;56.90
4312;DHT22;2169;49.086;9.284;2022-07-10T02:02:36;19.00;57.00
4312;DHT22;2169;49.086;9.284;2022-07-10T02:05:03;18.90;56.90
4312;DHT22;2169;49.086;9.284;2022-07-10T02:07:29;18.90;56.90
4312;DHT22;2169;49.086;9.284;2022-07-10T02:09:56;18.90;56.90
4312;DHT22;2169;49.086;9.284;2022-07-10T02:12:24;18.80;56.90
4312;DHT22;2169;49.086;9.284;2022-07-10T02:14:51;18.80;57.00
4312;DHT22;2169;49.086;9.284;2022-07-10T02:17:18;18.80;57.10
4312;DHT22;2169;49.086;9.284;2022-07-10T02:19:44;18.70;57.10
4312;DHT22;2169;49.086;9.284;2022-07-10T02:22:11;18.70;57.20
4312;DHT22;2169;49.086;9.284;2022-07-10T02:24:38;18.70;57.20
4312;DHT22;2169;49.086;9.284;2022-07-10T02:27:05;18.60;57.20
4312;DHT22;2169;49.086;9.284;2022-07-10T02:29:33;18.50;57.20
4312;DHT22;2169;49.086;9.284;2022-07-10T02:32:00;18.50;57.30
4312;DHT22;2169;49.086;9.284;2022-07-10T02:34:26;18.50;57.30
4312;DHT22;2169;49.086;9.284;2022-07-10T02:36:53;18.50;57.30
4312;DHT22;2169;49.086;9.284;2022-07-10T02:39:20;18.50;57.40
4312;DHT22;2169;49.086;9.284;2022-07-10T02:41:48;18.50;57.40
4312;DHT22;2169;49.086;9.284;2022-07-10T02:44:15;18.50;57.40
4312;DHT22;2169;49.086;9.284;2022-07-10T02:46:43;18.40;57.40
4312;DHT22;2169;49.086;9.284;2022-07-10T02:49:10;18.40;57.50
4312;DHT22;2169;49.086;9.284;2022-07-10T02:51:37;18.40;57.50
4312;DHT22;2169;49.086;9.284;2022-07-10T02:54:04;18.40;57.50
4312;DHT22;2169;49.086;9.284;2022-07-10T02:56:31;18.40;57.50
4312;DHT22;2169;49.086;9.284;2022-07-10T02:58:57;18.30;57.60
4312;DHT22;2169;49.086;9.284;2022-07-10T03:01:24;18.30;57.80
4312;DHT22;2169;49.086;9.284;2022-07-10T03:03:52;18.20;57.80
4312;DHT22;2169;49.086;9.284;2022-07-10T03:06:19;18.20;57.80
4312;DHT22;2169;49.086;9.284;2022-07-10T03:08:46;18.20;57.80
4312;DHT22;2169;49.086;9.284;2022-07-10T03:11:13;18.20;57.80
4312;DHT22;2169;49.086;9.284;2022-07-10T03:13:40;18.10;57.80
4312;DHT22;2169;49.086;9.284;2022-07-10T03:16:07;18.10;57.90
4312;DHT22;2169;49.086;9.284;2022-07-10T03:18:33;18.10;58.00
4312;DHT22;2169;49.086;9.284;2022-07-10T03:21:02;18.00;57.90
4312;DHT22;2169;49.086;9.284;2022-07-10T03:23:29;18.00;57.90
4312;DHT22;2169;49.086;9.284;2022-07-10T03:25:56;18.00;57.90
4312;DHT22;2169;49.086;9.284;2022-07-10T03:28:23;17.90;57.80
4312;DHT22;2169;49.086;9.284;2022-07-10T03:30:50;17.90;57.90
4312;DHT22;2169;49.086;9.284;2022-07-10T03:33:17;17.90;58.10
4312;DHT22;2169;49.086;9.284;2022-07-10T03:35:43;17.80;58.10
4312;DHT22;2169;49.086;9.284;2022-07-10T03:38:11;17.80;58.10
4312;DHT22;2169;49.086;9.284;2022-07-10T03:40:38;17.80;58.20
4312;DHT22;2169;49.086;9.284;2022-07-10T03:43:05;17.70;58.20
4312;DHT22;2169;49.086;9.284;2022-07-10T03:45:32;17.70;58.30
4312;DHT22;2169;49.086;9.284;2022-07-10T03:47:59;17.70;58.40
4312;DHT22;2169;49.086;9.284;2022-07-10T03:50:25;17.60;58.40
4312;DHT22;2169;49.086;9.284;2022-07-10T03:52:52;17.60;58.50
4312;DHT22;2169;49.086;9.284;2022-07-10T03:55:20;17.60;58.60
4312;DHT22;2169;49.086;9.284;2022-07-10T03:57:47;17.60;58.60
4312;DHT22;2169;49.086;9.284;2022-07-10T04:00:19;17.60;58.60
4312;DHT22;2169;49.086;9.284;2022-07-10T04:02:48;17.60;58.70
4312;DHT22;2169;49.086;9.284;2022-07-10T04:05:15;17.60;58.70
4312;DHT22;2169;49.086;9.284;2022-07-10T04:07:41;17.60;58.80
4312;DHT22;2169;49.086;9.284;2022-07-10T04:10:09;17.60;58.90
4312;DHT22;2169;49.086;9.284;2022-07-10T04:12:37;17.60;59.00
4312;DHT22;2169;49.086;9.284;2022-07-10T04:15:05;17.60;59.10
4312;DHT22;2169;49.086;9.284;2022-07-10T04:17:32;17.60;59.10
4312;DHT22;2169;49.086;9.284;2022-07-10T04:19:59;17.60;59.10
4312;DHT22;2169;49.086;9.284;2022-07-10T04:22:26;17.70;59.30
4312;DHT22;2169;49.086;9.284;2022-07-10T04:24:53;17.70;59.30
4312;DHT22;2169;49.086;9.284;2022-07-10T04:27:20;17.70;59.40
4312;DHT22;2169;49.086;9.284;2022-07-10T04:32:16;17.70;59.40
4312;DHT22;2169;49.086;9.284;2022-07-10T04:34:43;17.70;59.40
4312;DHT22;2169;49.086;9.284;2022-07-10T04:37:10;17.70;59.40
4312;DHT22;2169;49.086;9.284;2022-07-10T04:39:37;17.70;59.50
4312;DHT22;2169;49.086;9.284;2022-07-10T04:42:05;17.70;59.50
4312;DHT22;2169;49.086;9.284;2022-07-10T04:44:32;17.70;59.50
4312;DHT22;2169;49.086;9.284;2022-07-10T04:46:59;17.60;59.40
4312;DHT22;2169;49.086;9.284;2022-07-10T04:49:27;17.60;59.40
4312;DHT22;2169;49.086;9.284;2022-07-10T04:51:55;17.60;59.50
4312;DHT22;2169;49.086;9.284;2022-07-10T04:54:22;17.60;59.60
4312;DHT22;2169;49.086;9.284;2022-07-10T04:56:49;17.60;59.60
4312;DHT22;2169;49.086;9.284;2022-07-10T04:59:16;17.60;59.70
4312;DHT22;2169;49.086;9.284;2022-07-10T05:01:43;17.60;59.60
4312;DHT22;2169;49.086;9.284;2022-07-10T05:04:10;17.60;59.50
4312;DHT22;2169;49.086;9.284;2022-07-10T05:06:38;17.60;59.50
4312;DHT22;2169;49.086;9.284;2022-07-10T05:09:05;17.60;59.40
4312;DHT22;2169;49.086;9.284;2022-07-10T05:11:32;17.50;59.30
4312;DHT22;2169;49.086;9.284;2022-07-10T05:13:59;17.50;59.30
4312;DHT22;2169;49.086;9.284;2022-07-10T05:16:25;17.50;59.30
4312;DHT22;2169;49.086;9.284;2022-07-10T05:18:52;17.50;59.30
4312;DHT22;2169;49.086;9.284;2022-07-10T05:21:19;17.60;59.40
4312;DHT22;2169;49.086;9.284;2022-07-10T05:23:47;17.60;59.40
4312;DHT22;2169;49.086;9.284;2022-07-10T05:26:14;17.60;59.40
4312;DHT22;2169;49.086;9.284;2022-07-10T05:28:41;17.60;59.40
4312;DHT22;2169;49.086;9.284;2022-07-10T05:31:07;17.60;59.40
4312;DHT22;2169;49.086;9.284;2022-07-10T05:33:34;17.50;59.40
4312;DHT22;2169;49.086;9.284;2022-07-10T05:36:04;17.50;59.40
4312;DHT22;2169;49.086;9.284;2022-07-10T05:38:31;17.50;59.50
4312;DHT22;2169;49.086;9.284;2022-07-10T05:40:59;17.50;59.40
4312;DHT22;2169;49.086;9.284;2022-07-10T05:43:26;17.60;59.30
4312;DHT22;2169;49.086;9.284;2022-07-10T05:45:53;17.60;59.20
4312;DHT22;2169;49.086;9.284;2022-07-10T05:48:20;17.60;59.10
4312;DHT22;2169;49.086;9.284;2022-07-10T05:50:47;17.70;58.90
4312;DHT22;2169;49.086;9.284;2022-07-10T05:53:13;17.70;58.70
4312;DHT22;2169;49.086;9.284;2022-07-10T05:55:40;17.70;58.50
4312;DHT22;2169;49.086;9.284;2022-07-10T05:58:08;17.70;58.30
4312;DHT22;2169;49.086;9.284;2022-07-10T06:00:36;17.70;58.20
4312;DHT22;2169;49.086;9.284;2022-07-10T06:03:03;17.80;58.10
4312;DHT22;2169;49.086;9.284;2022-07-10T06:05:29;17.80;57.80
4312;DHT22;2169;49.086;9.284;2022-07-10T06:07:56;17.80;57.70
4312;DHT22;2169;49.086;9.284;2022-07-10T06:10:23;17.90;57.70
4312;DHT22;2169;49.086;9.284;2022-07-10T06:12:50;17.90;57.60
4312;DHT22;2169;49.086;9.284;2022-07-10T06:15:18;18.00;57.50
4312;DHT22;2169;49.086;9.284;2022-07-10T06:17:45;18.00;57.30
4312;DHT22;2169;49.086;9.284;2022-07-10T06:20:12;18.00;57.30
4312;DHT22;2169;49.086;9.284;2022-07-10T06:22:39;18.00;57.10
4312;DHT22;2169;49.086;9.284;2022-07-10T06:25:07;18.10;56.80
4312;DHT22;2169;49.086;9.284;2022-07-10T06:27:34;18.10;56.70
4312;DHT22;2169;49.086;9.284;2022-07-10T06:30:01;18.10;56.60
4312;DHT22;2169;49.086;9.284;2022-07-10T06:32:29;18.20;56.70
4312;DHT22;2169;49.086;9.284;2022-07-10T06:34:56;18.30;56.50
4312;DHT22;2169;49.086;9.284;2022-07-10T06:37:23;18.30;56.10
4312;DHT22;2169;49.086;9.284;2022-07-10T06:39:50;18.40;55.70
4312;DHT22;2169;49.086;9.284;2022-07-10T06:42:17;18.50;55.60
4312;DHT22;2169;49.086;9.284;2022-07-10T06:44:45;18.60;55.10
4312;DHT22;2169;49.086;9.284;2022-07-10T06:47:13;18.70;54.80
4312;DHT22;2169;49.086;9.284;2022-07-10T06:50:00;18.70;54.60
4312;DHT22;2169;49.086;9.284;2022-07-10T06:52:27;18.70;54.10
4312;DHT22;2169;49.086;9.284;2022-07-10T06:54:54;18.60;53.60
4312;DHT22;2169;49.086;9.284;2022-07-10T06:57:21;18.70;53.60
4312;DHT22;2169;49.086;9.284;2022-07-10T06:59:48;18.70;53.30
4312;DHT22;2169;49.086;9.284;2022-07-10T07:02:15;18.70;53.00
4312;DHT22;2169;49.086;9.284;2022-07-10T07:04:42;18.70;53.00
4312;DHT22;2169;49.086;9.284;2022-07-10T07:07:11;18.70;52.80
4312;DHT22;2169;49.086;9.284;2022-07-10T07:09:38;18.70;52.60
4312;DHT22;2169;49.086;9.284;2022-07-10T07:12:05;18.70;52.40
4312;DHT22;2169;49.086;9.284;2022-07-10T07:14:32;18.80;52.50
4312;DHT22;2169;49.086;9.284;2022-07-10T07:16:59;18.90;52.50
4312;DHT22;2169;49.086;9.284;2022-07-10T07:19:31;18.90;52.20
4312;DHT22;2169;49.086;9.284;2022-07-10T07:22:19;18.90;51.80
4312;DHT22;2169;49.086;9.284;2022-07-10T07:25:04;19.00;51.80
4312;DHT22;2169;49.086;9.284;2022-07-10T07:27:32;19.00;51.50
4312;DHT22;2169;49.086;9.284;2022-07-10T07:30:02;19.00;51.20
4312;DHT22;2169;49.086;9.284;2022-07-10T07:32:30;19.20;51.20
4312;DHT22;2169;49.086;9.284;2022-07-10T07:34:57;19.30;50.80
4312;DHT22;2169;49.086;9.284;2022-07-10T07:37:36;19.30;50.30
4312;DHT22;2169;49.086;9.284;2022-07-10T07:40:04;19.40;50.40
4312;DHT22;2169;49.086;9.284;2022-07-10T07:42:31;19.40;50.40
4312;DHT22;2169;49.086;9.284;2022-07-10T07:44:58;19.50;50.30
4312;DHT22;2169;49.086;9.284;2022-07-10T07:47:25;19.60;50.00
4312;DHT22;2169;49.086;9.284;2022-07-10T07:49:52;19.80;49.70
4312;DHT22;2169;49.086;9.284;2022-07-10T07:52:19;19.90;49.30
4312;DHT22;2169;49.086;9.284;2022-07-10T07:54:47;20.00;48.80
4312;DHT22;2169;49.086;9.284;2022-07-10T07:57:14;20.10;47.90
4312;DHT22;2169;49.086;9.284;2022-07-10T07:59:41;20.10;47.20
4312;DHT22;2169;49.086;9.284;2022-07-10T08:02:08;20.10;47.20
4312;DHT22;2169;49.086;9.284;2022-07-10T08:04:34;20.10;47.20
4312;DHT22;2169;49.086;9.284;2022-07-10T08:07:01;20.20;47.30
4312;DHT22;2169;49.086;9.284;2022-07-10T08:09:28;20.30;47.20
4312;DHT22;2169;49.086;9.284;2022-07-10T08:11:56;20.30;47.00
4312;DHT22;2169;49.086;9.284;2022-07-10T08:14:23;20.40;46.80
4312;DHT22;2169;49.086;9.284;2022-07-10T08:16:50;20.40;46.50
4312;DHT22;2169;49.086;9.284;2022-07-10T08:19:17;20.50;46.50
4312;DHT22;2169;49.086;9.284;2022-07-10T08:21:44;20.50;46.40
4312;DHT22;2169;49.086;9.284;2022-07-10T08:24:11;20.50;45.80
4312;DHT22;2169;49.086;9.284;2022-07-10T08:26:37;20.50;45.60
4312;DHT22;2169;49.086;9.284;2022-07-10T08:29:06;20.60;45.60
4312;DHT22;2169;49.086;9.284;2022-07-10T08:31:32;20.60;45.30
4312;DHT22;2169;49.086;9.284;2022-07-10T08:34:00;20.60;45.20
4312;DHT22;2169;49.086;9.284;2022-07-10T08:36:27;20.70;45.30
4312;DHT22;2169;49.086;9.284;2022-07-10T08:38:53;20.70;45.00
4312;DHT22;2169;49.086;9.284;2022-07-10T08:41:24;20.70;44.90
4312;DHT22;2169;49.086;9.284;2022-07-10T08:43:51;20.80;45.00
4312;DHT22;2169;49.086;9.284;2022-07-10T08:46:20;20.80;44.70
4312;DHT22;2169;49.086;9.284;2022-07-10T08:48:47;20.80;44.70
4312;DHT22;2169;49.086;9.284;2022-07-10T08:51:24;20.80;44.90
4312;DHT22;2169;49.086;9.284;2022-07-10T08:53:52;20.80;44.70
4312;DHT22;2169;49.086;9.284;2022-07-10T08:56:19;20.80;44.50
4312;DHT22;2169;49.086;9.284;2022-07-10T08:58:47;20.70;44.30
4312;DHT22;2169;49.086;9.284;2022-07-10T09:01:16;20.70;44.00
4312;DHT22;2169;49.086;9.284;2022-07-10T09:03:49;20.80;44.10
4312;DHT22;2169;49.086;9.284;2022-07-10T09:06:16;20.90;44.20
4312;DHT22;2169;49.086;9.284;2022-07-10T09:08:58;21.00;44.00
4312;DHT22;2169;49.086;9.284;2022-07-10T09:11:25;21.10;43.40
4312;DHT22;2169;49.086;9.284;2022-07-10T09:13:56;21.20;43.40
4312;DHT22;2169;49.086;9.284;2022-07-10T09:16:24;21.20;42.70
4312;DHT22;2169;49.086;9.284;2022-07-10T09:18:52;21.20;42.50
4312;DHT22;2169;49.086;9.284;2022-07-10T09:21:19;21.20;42.50
4312;DHT22;2169;49.086;9.284;2022-07-10T09:23:47;21.20;42.40
4312;DHT22;2169;49.086;9.284;2022-07-10T09:26:14;21.30;42.40
4312;DHT22;2169;49.086;9.284;2022-07-10T09:28:40;21.30;42.40
4312;DHT22;2169;49.086;9.284;2022-07-10T09:31:07;21.40;42.40
4312;DHT22;2169;49.086;9.284;2022-07-10T09:33:36;21.40;42.10
4312;DHT22;2169;49.086;9.284;2022-07-10T09:36:11;21.40;41.90
4312;DHT22;2169;49.086;9.284;2022-07-10T09:38:53;21.30;41.70
4312;DHT22;2169;49.086;9.284;2022-07-10T09:41:24;21.30;41.70
4312;DHT22;2169;49.086;9.284;2022-07-10T09:43:53;21.30;41.90
4312;DHT22;2169;49.086;9.284;2022-07-10T09:46:22;21.30;41.80
4312;DHT22;2169;49.086;9.284;2022-07-10T09:49:04;21.30;41.80
4312;DHT22;2169;49.086;9.284;2022-07-10T09:51:34;21.40;41.80
4312;DHT22;2169;49.086;9.284;2022-07-10T09:54:02;21.40;41.90
4312;DHT22;2169;49.086;9.284;2022-07-10T09:56:34;21.50;41.80
4312;DHT22;2169;49.086;9.284;2022-07-10T09:59:09;21.50;41.60
4312;DHT22;2169;49.086;9.284;2022-07-10T10:01:36;21.50;41.50
4312;DHT22;2169;49.086;9.284;2022-07-10T10:04:04;21.60;41.60
4312;DHT22;2169;49.086;9.284;2022-07-10T10:06:33;21.70;41.40
4312;DHT22;2169;49.086;9.284;2022-07-10T10:09:04;21.70;41.10
4312;DHT22;2169;49.086;9.284;2022-07-10T10:11:34;21.70;41.10
4312;DHT22;2169;49.086;9.284;2022-07-10T10:14:02;21.70;40.90
4312;DHT22;2169;49.086;9.284;2022-07-10T10:16:30;21.80;40.70
4312;DHT22;2169;49.086;9.284;2022-07-10T10:18:57;21.70;40.60
4312;DHT22;2169;49.086;9.284;2022-07-10T10:21:44;21.70;40.70
4312;DHT22;2169;49.086;9.284;2022-07-10T10:24:13;21.70;40.70
4312;DHT22;2169;49.086;9.284;2022-07-10T10:26:41;21.80;40.70
4312;DHT22;2169;49.086;9.284;2022-07-10T10:29:09;21.80;40.40
4312;DHT22;2169;49.086;9.284;2022-07-10T10:31:36;21.80;40.40
4312;DHT22;2169;49.086;9.284;2022-07-10T10:34:04;21.80;40.30
4312;DHT22;2169;49.086;9.284;2022-07-10T10:36:53;22.00;40.20
4312;DHT22;2169;49.086;9.284;2022-07-10T10:39:19;22.00;40.10
4312;DHT22;2169;49.086;9.284;2022-07-10T10:41:48;22.00;40.20
4312;DHT22;2169;49.086;9.284;2022-07-10T10:44:23;22.10;40.20
4312;DHT22;2169;49.086;9.284;2022-07-10T10:46:59;22.30;40.40
4312;DHT22;2169;49.086;9.284;2022-07-10T10:49:50;22.40;40.20
4312;DHT22;2169;49.086;9.284;2022-07-10T10:52:23;22.40;40.00
4312;DHT22;2169;49.086;9.284;2022-07-10T10:57:23;22.40;39.60
4312;DHT22;2169;49.086;9.284;2022-07-10T11:00:03;22.40;39.50
4312;DHT22;2169;49.086;9.284;2022-07-10T11:02:34;22.30;39.40
4312;DHT22;2169;49.086;9.284;2022-07-10T11:08:04;22.30;38.90
4312;DHT22;2169;49.086;9.284;2022-07-10T11:10:32;22.30;39.00
4312;DHT22;2169;49.086;9.284;2022-07-10T11:13:00;22.30;39.20
4312;DHT22;2169;49.086;9.284;2022-07-10T11:15:28;22.40;39.00
4312;DHT22;2169;49.086;9.284;2022-07-10T11:17:55;22.40;38.80
4312;DHT22;2169;49.086;9.284;2022-07-10T11:20:22;22.40;38.90
4312;DHT22;2169;49.086;9.284;2022-07-10T11:23:00;22.60;39.00
4312;DHT22;2169;49.086;9.284;2022-07-10T11:25:41;22.70;38.50
4312;DHT22;2169;49.086;9.284;2022-07-10T11:28:11;22.80;38.30
4312;DHT22;2169;49.086;9.284;2022-07-10T11:30:46;22.70;38.30
4312;DHT22;2169;49.086;9.284;2022-07-10T11:33:14;22.70;38.20
4312;DHT22;2169;49.086;9.284;2022-07-10T11:35:44;22.60;38.00
4312;DHT22;2169;49.086;9.284;2022-07-10T11:38:11;22.50;38.10
4312;DHT22;2169;49.086;9.284;2022-07-10T11:40:40;22.50;38.30
4312;DHT22;2169;49.086;9.284;2022-07-10T11:43:06;22.50;38.30
4312;DHT22;2169;49.086;9.284;2022-07-10T11:45:39;22.60;38.30
4312;DHT22;2169;49.086;9.284;2022-07-10T11:48:06;22.70;38.00
4312;DHT22;2169;49.086;9.284;2022-07-10T11:50:35;22.70;37.90
4312;DHT22;2169;49.086;9.284;2022-07-10T11:53:03;22.70;38.10
4312;DHT22;2169;49.086;9.284;2022-07-10T11:55:30;22.80;38.10
4312;DHT22;2169;49.086;9.284;2022-07-10T11:58:15;22.90;37.90
4312;DHT22;2169;49.086;9.284;2022-07-10T12:00:42;23.00;37.40
4312;DHT22;2169;49.086;9.284;2022-07-10T12:03:18;23.00;37.30
4312;DHT22;2169;49.086;9.284;2022-07-10T12:05:46;23.00;36.80
4312;DHT22;2169;49.086;9.284;2022-07-10T12:08:14;23.00;36.60
4312;DHT22;2169;49.086;9.284;2022-07-10T12:10:43;23.00;36.70
4312;DHT22;2169;49.086;9.284;2022-07-10T12:13:13;23.00;36.60
4312;DHT22;2169;49.086;9.284;2022-07-10T12:15:45;23.10;36.20
4312;DHT22;2169;49.086;9.284;2022-07-10T12:18:16;23.10;36.10
4312;DHT22;2169;49.086;9.284;2022-07-10T12:20:43;23.00;36.00
4312;DHT22;2169;49.086;9.284;2022-07-10T12:23:13;23.00;36.10
4312;DHT22;2169;49.086;9.284;2022-07-10T12:25:59;23.00;36.10
4312;DHT22;2169;49.086;9.284;2022-07-10T12:31:42;23.20;36.30
4312;DHT22;2169;49.086;9.284;2022-07-10T12:37:19;23.20;36.20
4312;DHT22;2169;49.086;9.284;2022-07-10T12:40:06;23.20;36.20
4312;DHT22;2169;49.086;9.284;2022-07-10T12:42:46;23.30;35.70
4312;DHT22;2169;49.086;9.284;2022-07-10T12:45:14;23.30;35.60
4312;DHT22;2169;49.086;9.284;2022-07-10T12:48:23;23.40;35.30
4312;DHT22;2169;49.086;9.284;2022-07-10T12:51:20;23.40;35.20
4312;DHT22;2169;49.086;9.284;2022-07-10T12:53:47;23.30;35.00
4312;DHT22;2169;49.086;9.284;2022-07-10T12:56:29;23.30;35.40
4312;DHT22;2169;49.086;9.284;2022-07-10T12:58:56;23.30;35.30
4312;DHT22;2169;49.086;9.284;2022-07-10T13:01:23;23.10;35.00
4312;DHT22;2169;49.086;9.284;2022-07-10T13:03:59;23.10;35.40
4312;DHT22;2169;49.086;9.284;2022-07-10T13:06:27;23.20;35.60
4312;DHT22;2169;49.086;9.284;2022-07-10T13:08:54;23.20;35.40
4312;DHT22;2169;49.086;9.284;2022-07-10T13:11:21;23.20;35.40
4312;DHT22;2169;49.086;9.284;2022-07-10T13:13:48;23.30;35.50
4312;DHT22;2169;49.086;9.284;2022-07-10T13:16:16;23.30;35.20
4312;DHT22;2169;49.086;9.284;2022-07-10T13:18:43;23.40;35.10
4312;DHT22;2169;49.086;9.284;2022-07-10T13:21:11;23.30;35.00
4312;DHT22;2169;49.086;9.284;2022-07-10T13:23:38;23.30;35.10
4312;DHT22;2169;49.086;9.284;2022-07-10T13:26:06;23.40;35.20
4312;DHT22;2169;49.086;9.284;2022-07-10T13:28:33;23.50;35.30
4312;DHT22;2169;49.086;9.284;2022-07-10T13:31:00;23.60;35.20
4312;DHT22;2169;49.086;9.284;2022-07-10T13:33:27;23.70;35.00
4312;DHT22;2169;49.086;9.284;2022-07-10T13:35:54;23.80;34.80
4312;DHT22;2169;49.086;9.284;2022-07-10T13:38:22;23.80;34.70
4312;DHT22;2169;49.086;9.284;2022-07-10T13:40:50;23.90;34.50
4312;DHT22;2169;49.086;9.284;2022-07-10T13:43:17;24.00;34.30
4312;DHT22;2169;49.086;9.284;2022-07-10T13:45:46;24.00;34.00
4312;DHT22;2169;49.086;9.284;2022-07-10T13:48:14;24.10;33.90
4312;DHT22;2169;49.086;9.284;2022-07-10T13:50:42;24.10;33.50
4312;DHT22;2169;49.086;9.284;2022-07-10T13:53:09;24.00;33.20
4312;DHT22;2169;49.086;9.284;2022-07-10T13:55:38;23.90;33.30
4312;DHT22;2169;49.086;9.284;2022-07-10T13:58:05;24.00;33.50
4312;DHT22;2169;49.086;9.284;2022-07-10T14:00:32;24.00;33.50
4312;DHT22;2169;49.086;9.284;2022-07-10T14:02:59;24.10;33.60
4312;DHT22;2169;49.086;9.284;2022-07-10T14:05:26;24.10;33.40
4312;DHT22;2169;49.086;9.284;2022-07-10T14:07:53;24.20;33.40
4312;DHT22;2169;49.086;9.284;2022-07-10T14:10:19;24.20;33.50
4312;DHT22;2169;49.086;9.284;2022-07-10T14:12:47;24.30;33.50
4312;DHT22;2169;49.086;9.284;2022-07-10T14:15:14;24.30;33.20
4312;DHT22;2169;49.086;9.284;2022-07-10T14:17:41;24.40;33.20
4312;DHT22;2169;49.086;9.284;2022-07-10T14:20:09;24.50;33.20
4312;DHT22;2169;49.086;9.284;2022-07-10T14:22:37;24.50;33.20
4312;DHT22;2169;49.086;9.284;2022-07-10T14:25:04;24.50;33.00
4312;DHT22;2169;49.086;9.284;2022-07-10T14:27:31;24.50;33.10
4312;DHT22;2169;49.086;9.284;2022-07-10T14:29:59;24.50;32.80
4312;DHT22;2169;49.086;9.284;2022-07-10T14:32:26;24.50;32.90
4312;DHT22;2169;49.086;9.284;2022-07-10T14:34:53;24.50;32.70
4312;DHT22;2169;49.086;9.284;2022-07-10T14:37:20;24.50;32.70
4312;DHT22;2169;49.086;9.284;2022-07-10T14:39:47;24.50;32.70
4312;DHT22;2169;49.086;9.284;2022-07-10T14:42:14;24.50;32.50
4312;DHT22;2169;49.086;9.284;2022-07-10T14:44:42;24.40;32.20
4312;DHT22;2169;49.086;9.284;2022-07-10T14:47:10;24.40;32.20
4312;DHT22;2169;49.086;9.284;2022-07-10T14:49:36;24.40;32.50
4312;DHT22;2169;49.086;9.284;2022-07-10T14:52:04;24.50;32.70
4312;DHT22;2169;49.086;9.284;2022-07-10T14:54:31;24.60;32.80
4312;DHT22;2169;49.086;9.284;2022-07-10T14:56:57;24.70;32.70
4312;DHT22;2169;49.086;9.284;2022-07-10T14:59:24;24.70;32.20
4312;DHT22;2169;49.086;9.284;2022-07-10T15:01:51;24.60;32.10
4312;DHT22;2169;49.086;9.284;2022-07-10T15:04:19;24.60;32.10
4312;DHT22;2169;49.086;9.284;2022-07-10T15:06:46;24.50;32.10
4312;DHT22;2169;49.086;9.284;2022-07-10T15:09:13;24.50;32.30
4312;DHT22;2169;49.086;9.284;2022-07-10T15:11:40;24.60;32.40
4312;DHT22;2169;49.086;9.284;2022-07-10T15:14:06;24.60;32.30
4312;DHT22;2169;49.086;9.284;2022-07-10T15:16:33;24.70;32.50
4312;DHT22;2169;49.086;9.284;2022-07-10T15:19:00;24.90;32.50
4312;DHT22;2169;49.086;9.284;2022-07-10T15:21:30;24.90;32.00
4312;DHT22;2169;49.086;9.284;2022-07-10T15:23:56;25.00;31.70
4312;DHT22;2169;49.086;9.284;2022-07-10T15:26:23;25.00;31.50
4312;DHT22;2169;49.086;9.284;2022-07-10T15:28:50;25.00;31.40
4312;DHT22;2169;49.086;9.284;2022-07-10T15:31:17;25.10;31.50
4312;DHT22;2169;49.086;9.284;2022-07-10T15:33:43;25.10;31.40
4312;DHT22;2169;49.086;9.284;2022-07-10T15:36:11;25.20;31.40
4312;DHT22;2169;49.086;9.284;2022-07-10T15:38:39;25.20;31.30
4312;DHT22;2169;49.086;9.284;2022-07-10T15:41:06;25.20;31.20
4312;DHT22;2169;49.086;9.284;2022-07-10T15:43:33;25.20;31.30
4312;DHT22;2169;49.086;9.284;2022-07-10T15:45:59;25.20;31.30
4312;DHT22;2169;49.086;9.284;2022-07-10T15:48:26;25.10;31.30
4312;DHT22;2169;49.086;9.284;2022-07-10T15:50:53;25.10;31.40
4312;DHT22;2169;49.086;9.284;2022-07-10T15:53:20;25.10;31.40
4312;DHT22;2169;49.086;9.284;2022-07-10T15:55:49;25.10;31.40
4312;DHT22;2169;49.086;9.284;2022-07-10T15:58:16;25.10;31.50
4312;DHT22;2169;49.086;9.284;2022-07-10T16:00:43;25.10;31.50
4312;DHT22;2169;49.086;9.284;2022-07-10T16:03:09;25.20;31.50
4312;DHT22;2169;49.086;9.284;2022-07-10T16:05:36;25.10;31.40
4312;DHT22;2169;49.086;9.284;2022-07-10T16:08:04;25.10;31.40
4312;DHT22;2169;49.086;9.284;2022-07-10T16:10:30;25.10;31.40
4312;DHT22;2169;49.086;9.284;2022-07-10T16:12:59;25.10;31.40
4312;DHT22;2169;49.086;9.284;2022-07-10T16:15:25;25.10;31.40
4312;DHT22;2169;49.086;9.284;2022-07-10T16:17:52;25.00;31.30
4312;DHT22;2169;49.086;9.284;2022-07-10T16:20:19;25.00;31.60
4312;DHT22;2169;49.086;9.284;2022-07-10T16:22:46;24.90;31.60
4312;DHT22;2169;49.086;9.284;2022-07-10T16:25:13;25.00;31.70